Time;durP1;ratioP1;P1;durP2;ratioP2;P2;SDS_P1;SDS_P2;PMS_P1;PMS_P2;Temp;Humidity;BMP_temperature;BMP_pressure;BME280_temperature;BME280_humidity;BME280_pressure;Samples;Min_cycle;Max_cycle;Signal;HPM_P1;HPM_P2
2023/12/12 00:01:07;;;;;;;6.33;2.20;;;9.70;91.90;;;12.04;54.38;98193.22;6269737;22;113369;-83
2023/12/12 00:03:44;;;;;;;5.93;2.33;;;12.80;92.70;;;12.03;54.50;98203.47;6271585;22;124891;-83
2023/12/12 00:06:17;;;;;;;7.60;2.97;;;11.90;92.30;;;12.04;54.47;98196.00;6273025;22;122670;-83
2023/12/12 00:08:47;;;;;;;4.03;2.23;;;12.30;92.50;;;12.01;54.60;98191.94;6245873;22;112544;-82
2023/12/12 00:11:32;;;;;;;9.17;2.43;;;12.70;92.70;;;11.99;54.51;98198.94;6273454;22;114018;-82
2023/12/12 00:14:01;;;;;;;4.33;2.30;;;11.80;92.30;;;11.99;54.58;98193.41;6243832;22;122460;-81
2023/12/12 00:16:31;;;;;;;5.63;1.93;;;11.80;92.30;;;11.96;54.81;98194.91;6268362;22;123258;-83
2023/12/12 00:19:03;;;;;;;6.73;1.93;;;11.70;92.40;;;11.95;54.60;98198.78;6245950;22;114431;-83
2023/12/12 00:21:54;;;;;;;8.43;2.30;;;14.00;93.30;;;11.92;54.79;98196.69;6248376;22;113779;-83
2023/12/12 00:24:35;;;;;;;11.60;1.90;;;11.70;92.30;;;11.87;54.68;98192.16;6272122;22;124644;-84
2023/12/12 00:27:16;;;;;;;5.67;2.37;;;13.90;93.30;;;11.87;54.72;98197.69;6257271;22;123510;-84
2023/12/12 00:29:50;;;;;;;6.83;1.77;;;11.70;92.40;;;11.87;54.79;98194.94;6275655;22;115023;-83
2023/12/12 00:32:20;;;;;;;4.40;2.00;;;11.70;92.40;;;11.87;55.15;98203.25;6276899;22;114212;-84
2023/12/12 00:34:51;;;;;;;9.03;2.40;;;11.60;92.50;;;11.85;55.15;98208.28;6302361;22;123790;-84
2023/12/12 00:37:37;;;;;;;6.70;2.43;;;11.40;92.40;;;11.79;54.87;98198.53;6300688;22;123345;-84
2023/12/12 00:40:06;;;;;;;6.03;1.83;;;11.60;92.50;;;11.79;55.37;98206.84;6268226;22;114770;-83
2023/12/12 00:42:36;;;;;;;7.80;2.33;;;11.60;92.50;;;11.79;55.21;98201.31;6268688;22;112262;-84
2023/12/12 00:45:14;;;;;;;8.20;2.37;;;11.60;92.80;;;11.82;55.36;98211.72;6269719;22;123233;-84
2023/12/12 00:47:48;;;;;;;4.67;1.87;;;11.60;92.60;;;11.83;55.24;98213.34;6243941;22;122283;-84
2023/12/12 00:50:48;;;;;;;6.50;2.07;;;11.60;92.80;;;11.82;55.31;98206.19;6243822;22;114091;-83
2023/12/12 00:53:18;;;;;;;3.70;1.63;;;11.60;92.70;;;11.84;55.27;98206.66;6243230;22;114816;-83
2023/12/12 00:55:47;;;;;;;6.93;2.27;;;11.60;92.80;;;11.85;55.09;98210.25;6240068;22;124000;-84
2023/12/12 00:58:25;;;;;;;4.67;1.97;;;11.80;92.80;;;11.86;55.39;98203.59;6270927;22;123333;-83
2023/12/12 01:01:26;;;;;;;4.27;1.90;;;11.60;92.80;;;11.82;55.38;98211.72;6270891;22;115058;-84
2023/12/12 01:04:04;;;;;;;4.17;2.40;;;11.60;92.70;;;11.83;55.51;98213.34;6270718;22;113513;-84
2023/12/12 01:07:06;;;;;;;6.70;2.00;;;11.60;92.70;;;11.82;55.20;98202.59;6269544;22;123658;-85
2023/12/12 01:10:02;;;;;;;4.30;1.50;;;11.60;92.80;;;11.84;55.64;98198.34;6147900;23;123268;-83
2023/12/12 01:12:37;;;;;;;5.37;2.53;;;11.60;92.80;;;11.86;55.40;98196.09;6057479;23;114189;-83
2023/12/12 01:15:04;;;;;;;4.43;1.80;;;11.60;92.90;;;11.86;55.55;98207.16;6059763;23;113627;-84
2023/12/12 01:17:37;;;;;;;4.50;1.60;;;11.60;92.90;;;11.89;55.56;98211.22;6059501;23;123161;-84
2023/12/12 01:22:40;;;;;;;5.10;2.20;;;11.60;92.90;;;11.89;55.61;98200.16;6235342;22;96050;-85
2023/12/12 01:25:41;;;;;;;5.77;2.10;;;14.00;94.40;;;11.91;55.83;98208.94;6214121;22;112992;-83
2023/12/12 01:28:22;;;;;;;2.50;1.50;;;12.10;93.20;;;11.92;55.85;98199.47;6158513;22;123338;-83
2023/12/12 01:30:50;;;;;;;3.80;1.70;;;11.60;93.20;;;11.97;55.54;98217.84;6210029;22;123487;-83
2023/12/12 01:33:23;;;;;;;5.93;1.63;;;11.40;94.00;;;11.91;56.05;98201.44;6210923;22;114257;-83
2023/12/12 01:35:51;;;;;;;4.27;2.20;;;11.60;93.90;;;11.93;55.92;98204.69;6211061;22;114104;-82
2023/12/12 01:38:23;;;;;;;3.40;1.80;;;11.60;94.30;;;11.96;55.59;98199.63;6211503;22;124862;-84
2023/12/12 01:40:56;;;;;;;3.70;1.57;;;11.70;93.70;;;11.93;55.85;98179.78;6186268;22;123566;-83
2023/12/12 01:43:45;;;;;;;7.70;2.20;;;11.70;94.10;;;11.94;55.73;98175.84;6212757;22;114266;-82
2023/12/12 01:46:19;;;;;;;6.43;2.23;;;11.70;93.30;;;11.93;56.14;98174.22;6212138;22;113420;-83
2023/12/12 01:48:54;;;;;;;7.00;1.73;;;11.70;93.30;;;11.94;56.06;98175.03;6159043;22;122051;-84
2023/12/12 01:51:24;;;;;;;4.07;1.50;;;12.30;93.70;;;11.93;56.07;98170.66;6185420;22;123157;-83
2023/12/12 01:53:55;;;;;;;3.50;1.60;;;10.90;93.10;;;11.90;56.30;98169.38;6186106;22;114097;-84
2023/12/12 01:56:22;;;;;;;3.93;1.67;;;11.80;93.50;;;11.92;56.59;98180.91;6186276;22;113837;-83
2023/12/12 01:58:54;;;;;;;2.30;1.50;;;11.60;93.50;;;11.92;56.41;98175.38;6185825;22;123599;-83
2023/12/12 02:01:29;;;;;;;4.20;1.90;;;11.60;93.50;;;11.92;56.33;98169.81;6186138;22;123881;-83
2023/12/12 02:04:00;;;;;;;6.87;1.60;;;13.20;94.30;;;11.89;56.64;98164.97;6210974;22;113698;-84
2023/12/12 02:06:29;;;;;;;7.20;1.70;;;11.60;93.60;;;11.89;56.53;98156.66;6185760;22;113788;-84
2023/12/12 02:09:04;;;;;;;2.27;1.60;;;11.40;93.60;;;11.90;56.71;98151.94;6211604;22;123959;-84
2023/12/12 02:11:33;;;;;;;3.63;1.60;;;13.40;94.50;;;11.91;56.81;98157.16;6185435;22;124559;-84
2023/12/12 02:16:29;;;;;;;4.90;1.97;;;11.70;93.70;;;11.92;56.54;98160.72;6243338;22;95790;-83
2023/12/12 02:19:03;;;;;;;3.27;1.87;;;15.40;95.50;;;11.91;56.72;98159.91;6215204;22;124150;-83
2023/12/12 02:21:29;;;;;;;4.20;1.67;;;11.70;94.10;;;11.88;56.89;98160.59;6215939;22;124367;-84
2023/12/12 02:23:57;;;;;;;2.43;1.80;;;8.10;93.00;;;11.88;56.59;98149.50;6215597;22;113751;-84
2023/12/12 02:26:35;;;;;;;3.53;1.50;;;14.10;94.90;;;11.90;57.13;98141.69;6242710;22;114021;-84
2023/12/12 02:29:03;;;;;;;3.33;1.37;;;11.70;93.90;;;11.92;56.65;98133.03;6214961;22;121833;-83
2023/12/12 02:31:51;;;;;;;5.97;1.77;;;11.70;94.00;;;11.88;56.95;98137.63;6214797;22;123659;-83
2023/12/12 02:38:24;;;;;;;3.30;1.70;;;14.20;95.10;;;11.80;57.06;98135.72;6238987;22;115033;-83
2023/12/12 02:40:50;;;;;;;4.30;1.63;;;11.60;93.90;;;11.78;57.25;98141.56;6238331;22;123271;-84
2023/12/12 02:43:18;;;;;;;5.43;1.57;;;11.60;94.00;;;11.78;57.47;98155.41;6187340;22;122143;-83
2023/12/12 02:45:55;;;;;;;2.20;1.50;;;11.60;94.00;;;11.79;57.38;98151.50;6241606;22;114269;-84
2023/12/12 02:48:46;;;;;;;5.80;1.70;;;11.50;94.00;;;11.75;57.47;98150.56;6188770;22;112594;-83
2023/12/12 02:51:21;;;;;;;2.70;1.60;;;11.50;94.00;;;11.76;57.56;98146.63;6239604;22;123888;-84
2023/12/12 02:53:58;;;;;;;3.33;1.57;;;11.50;94.10;;;11.76;57.33;98146.63;6199976;22;121670;-84
2023/12/12 02:56:35;;;;;;;9.03;1.87;;;11.60;94.20;;;11.78;57.81;98147.13;6241881;22;114058;-84
2023/12/12 02:59:01;;;;;;;3.13;1.40;;;11.50;94.20;;;11.77;57.54;98142.72;6215676;22;113642;-83
2023/12/12 03:01:30;;;;;;;2.60;1.50;;;11.50;94.20;;;11.78;57.46;98144.34;6215690;22;122199;-84
2023/12/12 03:04:05;;;;;;;3.20;1.57;;;12.80;94.70;;;11.79;57.41;98145.16;6241220;22;123161;-84
2023/12/12 03:06:31;;;;;;;2.53;1.40;;;11.50;94.20;;;11.79;57.31;98145.16;6188388;22;113088;-84
2023/12/12 03:09:06;;;;;;;2.20;1.40;;;12.50;94.60;;;11.77;57.62;98148.28;6213255;22;114259;-85
2023/12/12 03:11:37;;;;;;;3.10;1.40;;;11.50;94.30;;;11.76;57.51;98138.31;6239767;22;123745;-85
2023/12/12 03:14:05;;;;;;;2.30;1.40;;;11.50;94.30;;;11.75;57.54;98144.22;6132592;22;122460;-86
2023/12/12 03:16:43;;;;;;;2.43;1.70;;;11.90;94.50;;;11.77;57.67;98151.03;6210296;22;113828;-85
2023/12/12 03:19:12;;;;;;;3.43;1.80;;;14.40;95.60;;;11.77;57.74;98148.28;6213909;22;111986;-81
2023/12/12 03:21:43;;;;;;;1.43;1.00;;;11.50;94.30;;;11.80;57.41;98142.06;6215720;22;122989;-83
2023/12/12 03:24:12;;;;;;;1.60;1.33;;;14.90;96.10;;;11.78;57.70;98132.47;6202588;22;122526;-84
2023/12/12 03:26:51;;;;;;;2.60;1.10;;;11.50;94.40;;;11.79;57.30;98123.81;6215126;22;112530;-81
2023/12/12 03:29:43;;;;;;;3.63;1.30;;;11.50;94.60;;;11.78;57.64;98116.66;6216662;22;113259;-84
2023/12/12 03:32:26;;;;;;;6.07;2.57;;;11.50;94.40;;;11.77;57.75;98109.53;6213408;22;123849;-84
2023/12/12 03:34:54;;;;;;;1.97;1.20;;;11.50;94.40;;;11.78;57.45;98110.31;6241079;22;123287;-84
2023/12/12 03:37:35;;;;;;;2.97;1.20;;;11.50;94.50;;;11.79;57.45;98120.25;6189674;22;112888;-84
2023/12/12 03:40:08;;;;;;;1.80;1.30;;;13.40;95.30;;;11.80;57.57;98124.66;6190427;22;113820;-84
2023/12/12 03:42:46;;;;;;;3.60;1.50;;;11.50;94.40;;;11.77;57.70;98130.81;6214407;22;123535;-84
2023/12/12 03:45:21;;;;;;;2.73;1.53;;;13.90;95.50;;;11.73;57.75;98114.91;6240589;22;123634;-83
2023/12/12 03:47:48;;;;;;;2.60;1.20;;;14.10;95.60;;;11.72;57.51;98120.78;6213619;22;112490;-84
2023/12/12 03:50:27;;;;;;;4.50;1.33;;;11.40;94.60;;;11.70;57.82;98103.72;6240717;22;113925;-84
2023/12/12 03:53:00;;;;;;;1.80;1.10;;;13.80;95.50;;;11.70;57.47;98087.91;6212945;22;123678;-84
2023/12/12 03:55:27;;;;;;;3.30;1.53;;;12.50;94.90;;;11.69;57.41;98085.50;6209995;22;122185;-83
2023/12/12 03:57:57;;;;;;;2.50;1.13;;;13.20;95.20;;;11.71;57.63;98091.47;6214973;22;115048;-84
2023/12/12 04:00:42;;;;;;;3.37;1.27;;;11.50;94.40;;;11.71;57.30;98083.19;6242568;22;115313;-84
2023/12/12 04:03:14;;;;;;;3.10;1.30;;;11.90;94.50;;;11.70;57.32;98084.34;6214079;22;122450;-84
2023/12/12 04:05:45;;;;;;;5.67;1.53;;;11.40;94.30;;;11.68;57.18;98092.97;6241567;22;123578;-85
2023/12/12 04:08:14;;;;;;;2.60;1.33;;;11.40;94.30;;;11.69;57.09;98088.25;6189283;22;113757;-84
2023/12/12 04:11:02;;;;;;;3.63;1.13;;;11.40;94.20;;;11.65;56.89;98087.31;6241751;22;114011;-84
2023/12/12 04:13:35;;;;;;;2.00;1.20;;;11.40;94.10;;;11.65;57.05;98077.03;6239421;22;123115;-84
2023/12/12 04:16:07;;;;;;;2.03;1.20;;;11.40;94.10;;;11.66;57.08;98080.59;6213827;22;124022;-84
2023/12/12 04:18:42;;;;;;;4.63;1.40;;;8.10;93.20;;;11.66;57.09;98084.22;6241006;22;113778;-84
2023/12/12 04:21:14;;;;;;;2.23;1.23;;;15.10;95.70;;;11.65;56.97;98065.16;6241188;22;113514;-84
2023/12/12 04:23:48;;;;;;;3.33;1.37;;;11.40;94.00;;;11.63;56.88;98071.06;6239202;22;123688;-84
2023/12/12 04:26:33;;;;;;;1.80;1.30;;;11.40;94.00;;;11.61;56.94;98072.53;6239243;22;123452;-84
2023/12/12 04:29:17;;;;;;;3.40;1.33;;;11.40;94.00;;;11.60;56.63;98073.66;6238750;22;113985;-83
2023/12/12 04:31:56;;;;;;;4.90;1.30;;;11.40;94.00;;;11.57;56.91;98066.03;6213330;22;113538;-84
2023/12/12 04:34:49;;;;;;;2.60;1.33;;;11.80;94.10;;;11.56;56.86;98065.25;6239515;22;124864;-83
2023/12/12 04:37:17;;;;;;;6.10;1.30;;;11.40;93.90;;;11.56;56.98;98068.00;6238171;22;123437;-85
2023/12/12 04:39:51;;;;;;;1.73;1.13;;;12.70;94.50;;;11.55;56.84;98069.13;6213785;22;113612;-84
2023/12/12 04:42:34;;;;;;;3.47;1.23;;;11.80;94.30;;;11.53;56.74;98070.66;6239424;22;113805;-84
2023/12/12 04:45:06;;;;;;;9.03;2.03;;;11.30;94.00;;;11.49;56.85;98076.81;6211820;22;124854;-84
2023/12/12 04:47:57;;;;;;;2.87;1.43;;;11.30;93.80;;;11.42;56.73;98065.50;6209672;22;122688;-85
2023/12/12 04:50:39;;;;;;;3.83;1.70;;;11.20;93.80;;;11.40;56.73;98067.78;6116306;23;113556;-84
2023/12/12 04:53:21;;;;;;;3.57;1.43;;;11.20;93.90;;;11.36;56.97;98053.00;6144175;23;115669;-84
2023/12/12 04:55:52;;;;;;;4.27;2.13;;;11.20;93.80;;;11.34;56.95;98057.25;6141963;23;124798;-85
2023/12/12 04:58:30;;;;;;;2.90;1.53;;;11.90;94.20;;;11.32;57.13;98065.09;6117052;23;121931;-84
2023/12/12 05:01:19;;;;;;;4.67;1.30;;;11.70;94.10;;;11.27;57.08;98055.81;6143228;23;114100;-85
2023/12/12 05:03:56;;;;;;;1.93;1.30;;;7.30;92.70;;;11.27;57.10;98052.25;6141792;23;113528;-81
2023/12/12 05:06:29;;;;;;;2.43;1.40;;;11.10;93.90;;;11.29;57.08;98052.75;6140731;23;124073;-84
2023/12/12 05:08:58;;;;;;;3.03;1.40;;;13.70;95.10;;;11.32;56.87;98059.56;6142993;23;123202;-85
2023/12/12 05:11:25;;;;;;;2.40;1.60;;;13.90;95.20;;;11.34;57.11;98047.03;6117591;23;112031;-85
2023/12/12 05:14:11;;;;;;;2.37;1.10;;;11.00;94.00;;;11.36;57.00;98054.97;6142825;23;113665;-84
2023/12/12 05:16:37;;;;;;;1.83;1.23;;;11.10;93.90;;;11.34;56.93;98066.38;6136776;23;123577;-83
2023/12/12 05:19:18;;;;;;;4.90;1.43;;;13.80;95.20;;;11.31;56.77;98064.28;6141774;23;123025;-84
2023/12/12 05:21:52;;;;;;;2.70;1.40;;;13.70;95.00;;;11.31;56.91;98075.34;6170571;22;112416;-84
2023/12/12 05:24:19;;;;;;;1.33;1.03;;;11.10;93.90;;;11.31;56.97;98061.53;6206817;22;113365;-85
2023/12/12 05:26:48;;;;;;;2.40;1.20;;;11.10;93.90;;;11.34;57.15;98051.72;6233084;22;123811;-84
2023/12/12 05:29:19;;;;;;;3.47;1.60;;;11.90;94.30;;;11.38;56.81;98066.50;6209096;22;123695;-84
2023/12/12 05:31:57;;;;;;;3.93;1.30;;;11.10;94.10;;;11.41;57.08;98060.28;6235092;22;114229;-84
2023/12/12 05:34:30;;;;;;;4.67;1.60;;;12.50;94.60;;;11.45;56.80;98058.50;6233972;22;113547;-84
2023/12/12 05:36:59;;;;;;;4.00;1.60;;;11.10;94.00;;;11.47;56.88;98062.53;6184667;22;124403;-84
2023/12/12 05:39:26;;;;;;;2.93;1.53;;;13.90;95.20;;;11.48;57.16;98060.59;6235507;22;123780;-84
2023/12/12 05:41:56;;;;;;;2.50;1.70;;;11.20;94.00;;;11.48;56.55;98042.03;6236025;22;115102;-84
2023/12/12 05:44:28;;;;;;;2.30;1.70;;;11.20;94.00;;;11.47;56.78;98048.72;6235200;22;114770;-83
2023/12/12 05:47:03;;;;;;;1.77;1.43;;;12.50;94.50;;;11.47;56.47;98029.34;6233844;22;123952;-83
2023/12/12 05:49:36;;;;;;;5.10;1.70;;;11.20;94.00;;;11.46;57.06;98026.91;6206430;22;122479;-84
2023/12/12 05:52:11;;;;;;;5.73;1.40;;;12.40;94.40;;;11.46;56.97;98032.44;6235058;22;113158;-84
2023/12/12 05:54:40;;;;;;;4.03;1.77;;;12.70;94.50;;;11.45;56.88;98026.09;6181393;22;111616;-84
2023/12/12 05:57:21;;;;;;;3.90;1.33;;;11.20;93.90;;;11.46;56.85;98029.69;6229298;22;123756;-84
2023/12/12 05:59:52;;;;;;;2.47;1.27;;;11.20;93.90;;;11.47;56.71;98034.88;6233560;22;123687;-85
2023/12/12 06:02:30;;;;;;;3.80;1.37;;;11.20;93.90;;;11.48;56.90;98035.69;6233653;22;113414;-85
2023/12/12 06:04:59;;;;;;;2.30;1.30;;;12.70;94.50;;;11.46;56.53;98032.44;6206871;22;113802;-83
2023/12/12 06:07:35;;;;;;;2.00;1.10;;;11.10;94.50;;;11.46;56.60;98038.78;6209042;22;123590;-85
2023/12/12 06:10:08;;;;;;;3.67;1.63;;;14.20;95.10;;;11.45;56.67;98039.13;6233707;22;124145;-85
2023/12/12 06:12:35;;;;;;;2.30;1.20;;;11.20;94.20;;;11.45;56.95;98047.44;6169875;22;114245;-85
2023/12/12 06:15:07;;;;;;;2.07;1.23;;;14.30;95.20;;;11.47;56.80;98036.81;6166503;22;113217;-85
2023/12/12 06:18:06;;;;;;;6.33;1.60;;;11.20;94.00;;;11.48;56.90;98052.28;6140944;22;122340;-85
2023/12/12 06:20:37;;;;;;;3.03;1.30;;;11.20;93.90;;;11.50;56.78;98045.28;6167594;22;123086;-84
2023/12/12 06:23:13;;;;;;;1.97;1.30;;;11.20;93.90;;;11.52;56.43;98041.34;6144918;22;112711;-84
2023/12/12 06:25:41;;;;;;;4.27;1.43;;;13.80;95.20;;;11.54;56.79;98037.09;6166435;22;114798;-85
2023/12/12 06:28:19;;;;;;;4.53;1.43;;;11.30;94.00;;;11.56;56.46;98037.56;6147923;22;123456;-83
2023/12/12 06:30:47;;;;;;;4.23;1.83;;;11.20;94.00;;;11.58;56.38;98034.44;6170684;22;123141;-83
2023/12/12 06:33:15;;;;;;;2.23;1.40;;;11.30;94.00;;;11.60;56.20;98032.16;6143907;22;113620;-85
2023/12/12 06:35:53;;;;;;;3.93;1.67;;;11.30;93.80;;;11.59;56.32;98045.19;6170862;22;113970;-84
2023/12/12 06:38:37;;;;;;;2.57;1.30;;;13.40;94.80;;;11.60;56.06;98048.75;6144362;22;123933;-86
2023/12/12 06:41:10;;;;;;;6.77;1.50;;;13.60;94.80;;;11.60;56.29;98032.16;6167484;22;124239;-85
2023/12/12 06:43:44;;;;;;;2.60;1.43;;;11.30;93.70;;;11.61;56.00;98022.75;6193621;22;114230;-83
2023/12/12 06:46:25;;;;;;;3.47;1.80;;;12.80;94.40;;;11.60;55.83;98004.50;6204959;22;113946;-84
2023/12/12 06:49:00;;;;;;;1.93;1.33;;;11.30;93.80;;;11.61;56.15;98000.59;6231405;22;123851;-85
2023/12/12 06:51:41;;;;;;;6.50;2.37;;;12.20;94.20;;;11.62;56.23;98002.22;6229523;22;123070;-86
2023/12/12 06:54:13;;;;;;;3.43;1.83;;;12.40;94.30;;;11.63;56.27;97989.97;6178530;22;113737;-87
2023/12/12 06:56:48;;;;;;;3.17;1.73;;;11.30;94.30;;;11.62;56.11;97988.38;6233440;22;114300;-86
2023/12/12 06:59:18;;;;;;;3.03;1.87;;;11.30;94.60;;;11.65;56.08;97996.78;6230577;22;124693;-84
2023/12/12 07:01:44;;;;;;;3.63;1.53;;;11.70;94.30;;;11.70;56.19;98004.09;6231781;22;123807;-86
2023/12/12 07:04:14;;;;;;;2.53;1.47;;;14.00;95.80;;;11.72;55.95;98002.59;6202588;22;113224;-87
2023/12/12 07:06:46;;;;;;;6.80;2.43;;;11.60;95.10;;;11.75;55.99;97997.53;6230259;22;113821;-85
2023/12/12 07:09:16;;;;;;;4.07;2.47;;;12.70;94.80;;;11.66;56.15;97986.53;6228228;22;124599;-85
2023/12/12 07:11:44;;;;;;;9.23;2.73;;;11.70;94.40;;;11.66;55.92;97992.06;6205037;22;123219;-85
2023/12/12 07:14:20;;;;;;;6.47;2.60;;;11.40;94.00;;;11.61;56.57;97998.63;6082434;23;112098;-86
2023/12/12 07:16:47;;;;;;;6.97;3.00;;;11.20;94.20;;;11.52;56.66;97992.34;6111920;23;114288;-85
2023/12/12 07:19:17;;;;;;;8.57;3.50;;;11.30;94.40;;;11.50;56.76;98006.53;6109070;23;122784;-84
2023/12/12 07:21:55;;;;;;;10.87;3.27;;;14.30;95.30;;;11.50;57.05;98005.75;6131245;23;122872;-85
2023/12/12 07:24:29;;;;;;;6.17;2.90;;;11.30;93.90;;;11.54;56.96;98026.03;6104084;23;113777;-84
2023/12/12 07:26:57;;;;;;;6.83;3.20;;;11.30;94.00;;;11.56;56.88;98020.16;6083079;23;113568;-85
2023/12/12 07:29:30;;;;;;;5.90;3.13;;;14.80;95.50;;;11.58;57.08;98023.38;6137049;23;123376;-84
2023/12/12 07:32:03;;;;;;;4.30;2.10;;;11.30;94.00;;;11.58;56.72;98029.75;6110314;23;122546;-85
2023/12/12 07:34:48;;;;;;;3.50;1.90;;;11.20;94.00;;;11.60;56.67;98032.16;6133246;22;112960;-85
2023/12/12 07:37:31;;;;;;;4.37;1.77;;;13.20;94.80;;;11.57;56.90;98028.13;6112255;23;113479;-84
2023/12/12 07:39:58;;;;;;;4.83;1.77;;;11.30;94.00;;;11.56;56.95;98020.97;6110673;23;123600;-85
2023/12/12 07:42:34;;;;;;;2.17;1.37;;;11.30;94.20;;;11.56;56.97;98014.63;6137914;23;123395;-85
2023/12/12 07:45:09;;;;;;;3.00;1.50;;;11.30;94.10;;;11.57;57.04;98010.72;6133036;23;114092;-87
2023/12/12 07:47:43;;;;;;;1.90;1.33;;;11.30;94.20;;;11.57;56.89;97999.66;6126547;23;112982;-87
2023/12/12 07:50:18;;;;;;;6.60;1.90;;;11.30;94.10;;;11.59;57.02;97991.81;6123246;23;123329;-88
2023/12/12 07:52:50;;;;;;;2.97;1.70;;;11.10;94.10;;;11.62;57.02;98004.97;6158551;22;122543;-85
2023/12/12 07:55:22;;;;;;;2.73;1.30;;;14.90;95.70;;;11.63;57.39;98010.19;6166066;22;112926;-85
2023/12/12 07:57:49;;;;;;;3.30;1.60;;;11.30;94.20;;;11.63;57.16;98014.88;6220806;22;114189;-86
2023/12/12 08:00:19;;;;;;;2.23;1.30;;;12.50;95.00;;;11.64;57.35;98008.22;6192589;22;124397;-85
2023/12/12 08:02:47;;;;;;;4.40;1.40;;;11.30;94.20;;;11.63;56.83;97999.13;6163459;22;123552;-85
2023/12/12 08:05:14;;;;;;;3.90;1.60;;;11.40;94.30;;;11.64;57.30;97999.91;6190327;22;114225;-85
2023/12/12 08:07:44;;;;;;;2.00;1.50;;;11.00;94.10;;;11.63;57.30;98001.88;6192728;22;113494;-85
2023/12/12 08:10:11;;;;;;;2.70;1.40;;;12.60;94.80;;;11.65;57.01;98004.28;6166828;22;123802;-87
2023/12/12 08:12:43;;;;;;;7.27;1.90;;;11.40;94.30;;;11.67;57.55;97996.47;6163688;22;122788;-85
2023/12/12 08:15:10;;;;;;;2.37;1.60;;;11.80;94.50;;;11.68;57.19;97989.78;6189095;22;114624;-87
2023/12/12 08:17:39;;;;;;;3.70;1.83;;;12.90;95.10;;;11.69;57.49;97988.66;6217106;22;114991;-85
2023/12/12 08:20:20;;;;;;;4.47;2.30;;;11.40;94.40;;;11.72;57.09;97974.94;6217237;22;123378;-85
2023/12/12 08:22:48;;;;;;;4.13;2.43;;;11.40;94.40;;;11.74;57.30;97971.84;6190761;22;123704;-86
2023/12/12 08:25:24;;;;;;;7.50;2.93;;;11.40;94.50;;;11.72;57.32;97961.09;6218313;22;114536;-86
2023/12/12 08:27:57;;;;;;;8.37;3.30;;;11.50;94.50;;;11.71;57.46;97969.72;6218073;22;113959;-84
2023/12/12 08:30:25;;;;;;;5.23;2.70;;;11.40;94.50;;;11.73;57.27;97959.13;6164484;22;123136;-85
2023/12/12 08:32:52;;;;;;;5.90;2.13;;;13.40;95.40;;;11.73;57.58;97942.53;6191802;22;121579;-85
2023/12/12 08:35:20;;;;;;;4.53;2.23;;;14.60;96.00;;;11.77;57.64;97926.03;6166253;22;114603;-85
2023/12/12 08:37:47;;;;;;;8.23;2.77;;;11.50;94.60;;;11.79;57.65;97943.91;6216298;22;113540;-85
2023/12/12 08:40:21;;;;;;;6.90;2.73;;;11.50;94.60;;;11.82;57.74;97929.44;6185239;22;122248;-88
2023/12/12 08:42:50;;;;;;;5.23;2.30;;;12.70;95.20;;;11.81;57.80;97922.25;6164246;22;121920;-85
2023/12/12 08:45:16;;;;;;;6.70;2.50;;;13.90;95.70;;;11.82;58.02;97921.13;6216036;22;113570;-85
2023/12/12 08:47:48;;;;;;;7.03;2.87;;;11.50;94.70;;;11.83;57.70;97925.50;6160993;22;113416;-82
2023/12/12 08:50:17;;;;;;;8.10;2.60;;;11.50;94.80;;;11.81;58.00;97927.78;6214690;22;123248;-84
2023/12/12 08:52:48;;;;;;;5.70;2.43;;;11.40;94.80;;;11.79;57.74;97918.22;6213532;22;124166;-85
2023/12/12 08:55:21;;;;;;;6.03;2.63;;;13.90;95.90;;;11.78;58.06;97922.94;6187270;22;113366;-84
2023/12/12 08:57:51;;;;;;;5.00;2.70;;;13.10;95.50;;;11.80;58.01;97919.84;6188181;22;112772;-86
2023/12/12 09:00:20;;;;;;;4.87;2.40;;;11.50;94.90;;;11.82;57.91;97911.97;6161925;22;123437;-87
2023/12/12 09:02:47;;;;;;;3.40;2.20;;;11.50;94.80;;;11.83;58.33;97911.66;6188069;22;123814;-85
2023/12/12 09:05:15;;;;;;;2.73;1.90;;;11.50;94.90;;;11.85;58.13;97920.44;6212027;22;115449;-84
2023/12/12 09:07:42;;;;;;;3.10;1.93;;;11.50;94.90;;;11.89;58.34;97906.72;6165610;22;113482;-82
2023/12/12 09:10:15;;;;;;;4.77;3.07;;;11.50;94.90;;;11.90;58.13;97920.25;6189210;22;123363;-84
2023/12/12 09:12:49;;;;;;;4.17;2.07;;;11.60;94.90;;;11.90;57.88;97925.78;6187898;22;122962;-83
2023/12/12 09:15:17;;;;;;;4.80;2.40;;;11.50;94.90;;;11.91;58.13;97927.38;6185474;22;113892;-84
2023/12/12 09:17:44;;;;;;;4.60;1.50;;;15.00;96.40;;;11.93;57.94;97922.31;6212667;22;114074;-85
2023/12/12 09:20:13;;;;;;;2.70;1.80;;;11.60;95.00;;;11.94;57.88;97914.81;6183336;22;122374;-85
2023/12/12 09:22:40;;;;;;;2.60;1.73;;;11.60;94.90;;;11.97;58.14;97925.19;6184709;22;124050;-81
2023/12/12 09:25:09;;;;;;;4.27;1.97;;;11.60;94.90;;;12.00;58.13;97932.00;6159305;22;112857;-84
2023/12/12 09:27:45;;;;;;;2.20;1.80;;;11.70;95.00;;;11.96;57.99;97918.06;6185897;22;112867;-84
2023/12/12 09:30:13;;;;;;;6.13;2.00;;;11.70;94.90;;;11.94;58.11;97907.31;6161107;22;122616;-87
2023/12/12 09:32:40;;;;;;;4.20;1.80;;;11.70;95.00;;;11.95;58.13;97899.81;6189732;22;122299;-86
2023/12/12 09:35:14;;;;;;;3.77;2.20;;;12.00;95.10;;;11.96;58.02;97893.16;6189998;22;112920;-86
2023/12/12 09:37:43;;;;;;;2.23;1.83;;;11.70;95.00;;;11.94;58.13;97893.47;6194071;22;113811;-85
2023/12/12 09:40:17;;;;;;;2.33;1.87;;;11.70;95.00;;;11.93;58.23;97886.34;6219032;22;123462;-89
2023/12/12 09:42:51;;;;;;;2.27;1.67;;;13.90;96.00;;;11.94;58.25;97884.38;6215473;22;123332;-86
2023/12/12 09:45:19;;;;;;;4.23;1.90;;;11.70;95.00;;;11.95;58.06;97891.50;6215564;22;113529;-84
2023/12/12 09:47:50;;;;;;;7.90;1.63;;;11.70;95.10;;;11.95;58.50;97877.66;6186814;22;114164;-82
2023/12/12 09:50:19;;;;;;;1.90;1.40;;;11.70;95.10;;;11.94;58.44;97874.09;6216100;22;123591;-85
2023/12/12 09:52:48;;;;;;;4.37;2.10;;;11.70;95.20;;;11.96;58.41;97873.78;6186134;22;123020;-86
2023/12/12 09:55:22;;;;;;;4.33;2.10;;;11.70;95.20;;;11.95;58.42;97863.84;6185529;22;115175;-85
2023/12/12 09:57:48;;;;;;;3.27;1.67;;;11.70;95.30;;;11.94;58.57;97854.72;6190228;22;113285;-85
2023/12/12 10:00:18;;;;;;;4.40;2.13;;;11.30;95.20;;;11.93;58.70;97855.88;6185614;22;124262;-83
2023/12/12 10:02:57;;;;;;;3.33;2.47;;;11.60;95.30;;;11.95;58.90;97852.75;6218834;22;123928;-85
2023/12/12 10:05:37;;;;;;;2.30;1.50;;;11.50;95.30;;;11.97;58.85;97841.34;6163533;22;113343;-85
2023/12/12 10:08:04;;;;;;;3.17;2.00;;;11.70;95.50;;;11.97;59.16;97833.84;6221010;22;114194;-84
2023/12/12 10:10:31;;;;;;;2.53;1.60;;;12.10;95.70;;;11.99;59.06;97831.56;6187963;22;125328;-83
2023/12/12 10:12:58;;;;;;;4.40;1.97;;;14.10;96.70;;;12.00;59.28;97827.63;6188995;22;123576;-85
2023/12/12 10:15:27;;;;;;;3.63;1.70;;;11.70;95.70;;;12.01;59.59;97831.19;6214608;22;113991;-86
2023/12/12 10:18:02;;;;;;;3.30;2.10;;;11.80;95.80;;;12.01;59.63;97832.03;6215114;22;113351;-86
2023/12/12 10:20:30;;;;;;;3.70;1.93;;;11.70;95.80;;;12.00;59.83;97821.28;6188408;22;124054;-86
2023/12/12 10:23:00;;;;;;;3.47;2.03;;;11.70;95.90;;;11.99;59.73;97822.44;6189157;22;122930;-86
2023/12/12 10:25:45;;;;;;;4.20;2.23;;;13.40;96.70;;;11.98;60.17;97809.75;6190957;22;114361;-86
2023/12/12 10:28:12;;;;;;;5.20;1.87;;;11.70;96.10;;;11.96;60.41;97801.00;6191642;22;113226;-86
2023/12/12 10:30:46;;;;;;;6.13;2.53;;;14.00;97.20;;;11.96;60.47;97806.53;6218027;22;123796;-85
2023/12/12 10:33:15;;;;;;;4.93;1.83;;;11.70;96.30;;;11.96;60.83;97817.59;6187759;22;123391;-85
2023/12/12 10:35:53;;;;;;;2.57;1.83;;;13.10;97.00;;;11.96;60.93;97815.63;6188869;22;114078;-85
2023/12/12 10:38:28;;;;;;;3.20;1.70;;;13.20;97.30;;;11.93;61.43;97806.06;6214676;22;113934;-85
2023/12/12 10:41:21;;;;;;;3.37;1.93;;;11.70;96.80;;;11.90;61.81;97797.63;6161767;22;122392;-86
2023/12/12 10:43:49;;;;;;;4.30;1.60;;;11.60;97.00;;;11.87;61.66;97781.72;6187555;22;123791;-85
2023/12/12 10:46:19;;;;;;;2.50;1.50;;;11.60;97.00;;;11.87;61.86;97763.13;6214520;22;114418;-85
2023/12/12 10:48:48;;;;;;;2.40;1.73;;;11.60;97.40;;;11.87;62.09;97768.69;6188905;22;114983;-85